createdAt,value
2019-02-04T00:02:29.106Z,20.67
2019-02-04T00:04:58.942Z,26.80
2019-02-04T00:07:28.732Z,30.47
2019-02-04T00:09:58.877Z,29.13
2019-02-04T00:12:28.672Z,27.97
2019-02-04T00:14:58.487Z,25.97
2019-02-04T00:17:30.501Z,28.20
2019-02-04T00:20:00.809Z,27.93
2019-02-04T00:22:33.843Z,26.63
2019-02-04T00:25:04.679Z,26.73
2019-02-04T00:27:34.897Z,24.77
2019-02-04T00:30:07.709Z,24.50
2019-02-04T00:32:37.542Z,24.33
2019-02-04T00:35:08.205Z,26.80
2019-02-04T00:37:38.064Z,26.63
2019-02-04T00:40:10.891Z,26.57
2019-02-04T00:42:40.813Z,27.83
2019-02-04T00:45:11.053Z,28.60
2019-02-04T00:47:40.934Z,28.33
2019-02-04T00:50:13.526Z,28.13
2019-02-04T00:52:43.390Z,27.57
2019-02-04T00:55:13.861Z,26.13
2019-02-04T00:57:44.024Z,26.87
2019-02-04T01:00:22.885Z,24.63
2019-02-04T01:02:52.913Z,28.23
2019-02-04T01:05:22.927Z,27.47
2019-02-04T01:07:52.860Z,24.77
2019-02-04T01:10:30.318Z,27.73
2019-02-04T01:13:00.111Z,27.63
2019-02-04T01:15:30.042Z,24.60
2019-02-04T01:17:59.901Z,25.60
2019-02-04T01:20:30.671Z,26.90
2019-02-04T01:23:00.533Z,25.93
2019-02-04T01:25:30.372Z,25.37
2019-02-04T01:28:00.232Z,25.40
2019-02-04T01:30:30.112Z,26.37
2019-02-04T01:32:59.934Z,22.83
2019-02-04T01:35:30.193Z,23.37
2019-02-04T01:38:00.059Z,26.73
2019-02-04T01:40:29.869Z,25.10
2019-02-04T01:42:59.828Z,25.00
2019-02-04T01:45:29.640Z,24.13
2019-02-04T01:47:59.445Z,25.60
2019-02-04T01:50:29.284Z,25.70
2019-02-04T01:52:59.134Z,24.43
2019-02-04T01:55:29.054Z,22.03
2019-02-04T01:57:58.874Z,21.80
2019-02-04T02:00:31.432Z,22.73
2019-02-04T02:03:01.299Z,22.67
2019-02-04T02:05:50.453Z,21.20
2019-02-04T02:08:20.259Z,21.67
2019-02-04T02:10:50.150Z,18.53
2019-02-04T02:13:20.002Z,20.60
2019-02-04T02:15:49.804Z,20.67
2019-02-04T02:18:19.678Z,17.67
2019-02-04T02:20:49.475Z,17.87
2019-02-04T02:23:19.300Z,18.37
2019-02-04T02:25:49.533Z,18.40
2019-02-04T02:28:19.442Z,19.30
2019-02-04T02:30:49.291Z,16.40
2019-02-04T02:33:19.095Z,19.10
2019-02-04T02:35:48.946Z,17.23
2019-02-04T02:38:18.768Z,17.90
2019-02-04T02:40:48.667Z,17.10
2019-02-04T02:43:18.556Z,16.47
2019-02-04T02:45:48.558Z,16.57
2019-02-04T02:48:18.463Z,17.43
2019-02-04T02:50:51.228Z,15.30
2019-02-04T02:53:21.427Z,15.53
2019-02-04T02:55:52.350Z,15.70
2019-02-04T02:58:22.164Z,15.57
2019-02-04T03:00:51.958Z,15.07
2019-02-04T03:03:21.973Z,14.80
2019-02-04T03:05:51.748Z,15.07
2019-02-04T03:08:21.635Z,14.13
2019-02-04T03:10:51.462Z,12.90
2019-02-04T03:13:21.288Z,14.30
2019-02-04T03:15:51.097Z,13.97
2019-02-04T03:18:20.943Z,14.10
2019-02-04T03:20:51.116Z,13.90
2019-02-04T03:23:21.001Z,13.90
2019-02-04T03:25:50.827Z,13.87
2019-02-04T03:28:20.663Z,14.00
2019-02-04T03:30:50.712Z,13.97
2019-02-04T03:33:20.572Z,14.10
2019-02-04T03:35:50.540Z,13.57
2019-02-04T03:38:20.339Z,14.10
2019-02-04T03:40:50.235Z,13.53
2019-02-04T03:43:20.106Z,13.60
2019-02-04T03:45:49.999Z,14.27
2019-02-04T03:48:20.228Z,13.63
2019-02-04T03:50:50.014Z,14.43
2019-02-04T03:53:19.852Z,12.23
2019-02-04T03:55:49.695Z,13.40
2019-02-04T03:58:19.546Z,13.07
2019-02-04T04:00:49.384Z,12.50
2019-02-04T04:03:19.215Z,12.97
2019-02-04T04:05:50.323Z,13.57
2019-02-04T04:08:20.155Z,14.60
2019-02-04T04:10:49.955Z,12.87
2019-02-04T04:13:19.810Z,12.83
2019-02-04T04:15:49.616Z,12.60
2019-02-04T04:18:19.411Z,13.00
2019-02-04T04:20:49.252Z,13.60
2019-02-04T04:23:19.078Z,13.93
2019-02-04T04:25:48.851Z,13.23
2019-02-04T04:28:18.683Z,14.47
2019-02-04T04:30:48.532Z,14.77
2019-02-04T04:33:18.394Z,13.43
2019-02-04T04:35:48.203Z,15.03
2019-02-04T04:38:18.015Z,14.63
2019-02-04T04:40:47.931Z,14.40
2019-02-04T04:43:18.060Z,15.23
2019-02-04T04:45:47.964Z,14.40
2019-02-04T04:48:26.300Z,14.83
2019-02-04T04:50:49.299Z,14.40
2019-02-04T04:53:19.102Z,14.33
2019-02-04T04:55:49.346Z,14.77
2019-02-04T04:58:19.206Z,12.90
2019-02-04T05:00:49.096Z,14.80
2019-02-04T05:03:18.898Z,15.67
2019-02-04T05:05:54.730Z,16.33
2019-02-04T05:08:24.533Z,15.70
2019-02-04T05:10:54.363Z,14.43
2019-02-04T05:13:24.210Z,14.03
2019-02-04T05:15:53.952Z,15.77
2019-02-04T05:18:24.048Z,15.77
2019-02-04T05:20:53.858Z,14.13
2019-02-04T05:23:24.008Z,13.13
2019-02-04T05:25:53.799Z,13.33
2019-02-04T05:28:23.646Z,13.13
2019-02-04T05:30:53.515Z,11.90
2019-02-04T05:33:23.492Z,13.20
2019-02-04T05:35:53.848Z,13.00
2019-02-04T05:38:23.708Z,11.60
2019-02-04T05:40:53.570Z,12.10
2019-02-04T05:43:23.351Z,12.83
2019-02-04T05:45:53.280Z,12.00
2019-02-04T05:48:23.111Z,15.10
2019-02-04T05:50:52.952Z,13.33
2019-02-04T05:53:22.786Z,13.50
2019-02-04T05:55:52.655Z,12.90
2019-02-04T05:58:22.454Z,13.80
2019-02-04T06:00:52.476Z,13.50
2019-02-04T06:03:22.310Z,13.83
2019-02-04T06:05:52.216Z,13.00
2019-02-04T06:08:22.028Z,13.27
2019-02-04T06:10:51.917Z,13.57
2019-02-04T06:13:21.696Z,12.63
2019-02-04T06:15:51.538Z,13.33
2019-02-04T06:18:21.744Z,12.17
2019-02-04T06:20:51.511Z,12.70
2019-02-04T06:23:21.375Z,14.73
2019-02-04T06:25:51.221Z,13.30
2019-02-04T06:28:21.064Z,13.23
2019-02-04T06:30:50.936Z,12.27
2019-02-04T06:33:20.858Z,13.97
2019-02-04T06:35:50.696Z,14.37
2019-02-04T06:38:20.587Z,13.50
2019-02-04T06:40:50.441Z,13.27
2019-02-04T06:43:20.398Z,13.27
2019-02-04T06:45:50.609Z,13.70
2019-02-04T06:48:20.504Z,13.53
2019-02-04T06:50:51.050Z,13.10
2019-02-04T06:53:21.153Z,14.80
2019-02-04T06:55:53.123Z,14.87
2019-02-04T06:58:23.031Z,14.60
2019-02-04T07:00:52.893Z,15.00
2019-02-04T07:03:22.754Z,14.77
2019-02-04T07:05:52.747Z,14.23
2019-02-04T07:08:22.741Z,14.13
2019-02-04T07:10:52.778Z,16.37
2019-02-04T07:13:23.068Z,13.70
2019-02-04T07:15:52.989Z,14.67
2019-02-04T07:18:23.207Z,15.13
2019-02-04T07:20:53.456Z,13.43
2019-02-04T07:23:23.557Z,14.33
2019-02-04T07:25:54.053Z,14.93
2019-02-04T07:28:24.173Z,14.63
2019-02-04T07:30:54.053Z,15.17
2019-02-04T07:33:24.074Z,13.77
2019-02-04T07:35:55.548Z,13.83
2019-02-04T07:38:28.174Z,14.07
2019-02-04T07:40:58.534Z,13.63
2019-02-04T07:43:28.501Z,13.27
2019-02-04T07:45:58.331Z,14.30
2019-02-04T07:48:28.277Z,13.83
2019-02-04T07:50:58.257Z,14.07
2019-02-04T07:53:29.196Z,14.73
2019-02-04T07:55:59.064Z,14.03
2019-02-04T07:58:29.269Z,13.07
2019-02-04T08:00:59.684Z,12.87
2019-02-04T08:03:31.030Z,11.90
2019-02-04T08:06:01.109Z,14.30
2019-02-04T08:08:31.972Z,14.17
2019-02-04T08:11:02.063Z,14.40
2019-02-04T08:13:33.542Z,16.40
2019-02-04T08:16:03.609Z,15.50
2019-02-04T08:18:33.624Z,16.00
2019-02-04T08:21:04.265Z,16.97
2019-02-04T08:23:36.142Z,16.27
2019-02-04T08:26:06.218Z,15.60
2019-02-04T08:28:36.294Z,16.20
2019-02-04T08:31:07.628Z,15.40
2019-02-04T08:33:37.747Z,15.73
2019-02-04T08:36:10.670Z,16.10
2019-02-04T08:38:42.910Z,18.13
2019-02-04T08:41:13.280Z,16.47
2019-02-04T08:43:43.503Z,16.73
2019-02-04T08:46:13.850Z,16.37
2019-02-04T08:48:44.298Z,17.10
2019-02-04T08:51:14.386Z,15.43
2019-02-04T08:53:46.001Z,15.73
2019-02-04T08:56:16.104Z,15.43
2019-02-04T08:58:47.686Z,14.67
2019-02-04T09:01:19.023Z,15.83
2019-02-04T09:03:49.108Z,16.37
2019-02-04T09:06:23.693Z,16.33
2019-02-04T09:08:55.546Z,16.13
2019-02-04T09:11:25.943Z,16.17
2019-02-04T09:13:55.938Z,18.10
2019-02-04T09:16:26.595Z,18.63
2019-02-04T09:18:56.382Z,20.00
2019-02-04T09:21:26.737Z,19.83
2019-02-04T09:23:58.022Z,20.73
2019-02-04T09:26:28.056Z,21.77
2019-02-04T09:28:58.390Z,21.73
2019-02-04T09:31:28.258Z,22.43
2019-02-04T09:33:58.236Z,20.83
2019-02-04T09:36:28.217Z,20.70
2019-02-04T09:38:58.347Z,22.03
2019-02-04T09:41:28.473Z,22.70
2019-02-04T09:43:58.741Z,23.70
2019-02-04T09:46:28.854Z,24.33
2019-02-04T09:48:58.783Z,23.43
2019-02-04T09:51:28.694Z,24.67
2019-02-04T09:53:58.665Z,18.03
2019-02-04T09:56:28.989Z,23.33
2019-02-04T09:58:58.947Z,24.97
2019-02-04T10:01:28.949Z,25.70
2019-02-04T10:03:58.945Z,25.43
2019-02-04T10:06:28.986Z,26.50
2019-02-04T10:08:58.987Z,26.60
2019-02-04T10:11:29.345Z,28.00
2019-02-04T10:13:59.425Z,25.90
2019-02-04T10:16:29.343Z,27.53
2019-02-04T10:18:59.467Z,25.20
2019-02-04T10:21:31.028Z,25.23
2019-02-04T10:24:01.118Z,23.50
2019-02-04T10:26:31.446Z,22.53
2019-02-04T10:29:01.469Z,23.53
2019-02-04T10:31:34.136Z,24.23
2019-02-04T10:34:05.106Z,23.13
2019-02-04T10:36:35.287Z,22.53
2019-02-04T10:39:07.364Z,21.37
2019-02-04T10:41:38.121Z,22.27
2019-02-04T10:44:11.257Z,21.40
2019-02-04T10:46:41.270Z,20.73
2019-02-04T10:49:11.400Z,21.17
2019-02-04T10:51:41.473Z,22.07
2019-02-04T10:54:11.407Z,24.07
2019-02-04T10:56:41.438Z,22.50
2019-02-04T10:59:11.442Z,21.50
2019-02-04T11:01:41.520Z,20.33
2019-02-04T11:04:11.606Z,20.17
2019-02-04T11:06:41.833Z,21.90
2019-02-04T11:09:12.166Z,22.33
2019-02-04T11:11:43.132Z,22.60
2019-02-04T11:14:13.281Z,22.37
2019-02-04T11:16:43.324Z,17.83
2019-02-04T11:19:13.691Z,19.13
2019-02-04T11:21:43.712Z,20.40
2019-02-04T11:24:15.013Z,19.23
2019-02-04T11:26:46.094Z,18.90
2019-02-04T11:29:18.912Z,17.73
2019-02-04T11:31:50.767Z,18.87
2019-02-04T11:34:23.403Z,18.40
2019-02-04T11:36:55.703Z,18.23
2019-02-04T11:39:26.778Z,18.90
2019-02-04T11:41:58.470Z,17.83
2019-02-04T11:44:30.378Z,19.03
2019-02-04T11:47:02.151Z,17.47
2019-02-04T11:49:32.135Z,18.97
2019-02-04T11:52:02.295Z,17.43
2019-02-04T11:54:32.296Z,18.73
2019-02-04T11:57:06.175Z,19.57
2019-02-04T11:59:36.175Z,18.27
2019-02-04T12:02:06.856Z,20.60
2019-02-04T12:04:36.815Z,20.57
2019-02-04T12:07:07.415Z,19.60
2019-02-04T12:09:37.815Z,18.23
2019-02-04T12:12:07.935Z,17.90
2019-02-04T12:14:38.217Z,18.63
2019-02-04T12:17:09.068Z,20.67
2019-02-04T12:19:39.496Z,20.70
2019-02-04T12:22:09.743Z,19.40
2019-02-04T12:24:39.696Z,20.40
2019-02-04T12:27:09.898Z,20.60
2019-02-04T12:29:39.975Z,19.57
2019-02-04T12:32:10.025Z,19.20
2019-02-04T12:34:39.937Z,18.60
2019-02-04T12:37:10.219Z,15.97
2019-02-04T12:39:40.213Z,16.30
2019-02-04T12:42:11.653Z,17.37
2019-02-04T12:44:41.654Z,18.77
2019-02-04T12:47:12.054Z,17.90
2019-02-04T12:49:42.133Z,16.53
2019-02-04T12:52:12.094Z,17.00
2019-02-04T12:54:42.013Z,16.97
2019-02-04T12:57:15.446Z,17.60
2019-02-04T12:59:54.615Z,16.20
2019-02-04T13:02:26.654Z,16.70
2019-02-04T13:05:01.533Z,15.80
2019-02-04T13:07:32.653Z,16.23
2019-02-04T13:10:02.613Z,17.37
2019-02-04T13:12:32.517Z,18.37
2019-02-04T13:15:02.885Z,17.97
2019-02-04T13:17:34.379Z,16.70
2019-02-04T13:20:06.700Z,16.20
2019-02-04T13:22:43.900Z,16.37
2019-02-04T13:25:21.953Z,17.30
2019-02-04T13:27:53.488Z,16.70
2019-02-04T13:30:28.199Z,16.73
2019-02-04T13:32:59.584Z,14.97
2019-02-04T13:35:31.081Z,16.67
2019-02-04T13:38:01.297Z,13.77
2019-02-04T13:40:32.157Z,15.60
2019-02-04T13:43:02.124Z,16.10
2019-02-04T13:45:33.983Z,16.80
2019-02-04T13:48:04.694Z,16.77
2019-02-04T13:50:34.840Z,18.43
2019-02-04T13:53:05.718Z,18.23
2019-02-04T13:55:38.999Z,17.57
2019-02-04T13:58:09.276Z,16.30
2019-02-04T14:00:40.477Z,16.93
2019-02-04T14:03:10.715Z,17.23
2019-02-04T14:05:40.639Z,16.93
2019-02-04T14:08:10.641Z,19.27
2019-02-04T14:10:45.985Z,21.37
2019-02-04T14:13:14.632Z,22.47
2019-02-04T14:15:45.084Z,21.57
2019-02-04T14:18:14.874Z,23.67
2019-02-04T14:20:45.732Z,25.50
2019-02-04T14:23:15.680Z,26.37
2019-02-04T14:25:45.552Z,24.30
2019-02-04T14:28:15.805Z,24.80
2019-02-04T14:30:45.796Z,25.57
2019-02-04T14:33:17.289Z,53.33
2019-02-04T14:35:48.842Z,86.83
2019-02-04T14:38:20.364Z,31.63
2019-02-04T14:40:52.433Z,136.33
2019-02-04T14:43:25.236Z,27.97
2019-02-04T14:46:20.092Z,29.93
2019-02-04T14:49:17.356Z,26.40
2019-02-04T14:51:54.051Z,28.17
2019-02-04T14:54:52.560Z,29.43
2019-02-04T14:57:28.560Z,29.93
2019-02-04T15:00:01.665Z,30.07
2019-02-04T15:02:42.668Z,30.23
2019-02-04T15:05:33.725Z,28.33
2019-02-04T15:08:35.601Z,30.20
2019-02-04T15:11:21.401Z,30.30
2019-02-04T15:14:04.753Z,30.23
2019-02-04T15:16:39.088Z,31.13
2019-02-04T15:19:29.641Z,29.97
2019-02-04T15:22:33.102Z,30.27
2019-02-04T15:25:18.808Z,29.53
2019-02-04T15:27:57.969Z,31.43
2019-02-04T15:31:02.436Z,29.07
2019-02-04T15:33:43.300Z,29.63
2019-02-04T15:36:31.128Z,27.83
2019-02-04T15:39:14.641Z,28.97
2019-02-04T15:41:47.893Z,27.60
2019-02-04T15:44:29.444Z,28.07
2019-02-04T15:47:05.646Z,28.03
2019-02-04T15:49:50.364Z,28.80
2019-02-04T15:52:12.556Z,30.03
2019-02-04T15:54:42.770Z,28.27
2019-02-04T15:57:14.929Z,28.90
2019-02-04T15:59:44.752Z,30.20
2019-02-04T16:02:14.867Z,29.30
2019-02-04T16:04:44.680Z,29.40
2019-02-04T16:07:14.831Z,29.80
2019-02-04T16:09:44.982Z,28.90
2019-02-04T16:12:15.789Z,28.57
2019-02-04T16:14:45.985Z,29.43
2019-02-04T16:17:16.197Z,30.67
2019-02-04T16:19:46.352Z,28.77
2019-02-04T16:22:18.437Z,29.97
2019-02-04T16:24:51.309Z,30.40
2019-02-04T16:27:21.141Z,29.47
2019-02-04T16:29:51.566Z,30.90
2019-02-04T16:32:24.061Z,28.80
2019-02-04T16:34:53.192Z,28.47
2019-02-04T16:37:23.218Z,27.33
2019-02-04T16:40:01.018Z,26.37
2019-02-04T16:42:33.808Z,27.20
2019-02-04T16:45:09.147Z,27.03
2019-02-04T16:47:39.093Z,26.47
2019-02-04T16:50:15.185Z,28.13
2019-02-04T16:52:48.231Z,29.80
2019-02-04T16:55:18.078Z,29.90
2019-02-04T16:57:49.631Z,28.03
2019-02-04T17:00:34.479Z,28.33
2019-02-04T17:03:00.557Z,27.43
2019-02-04T17:05:30.558Z,28.43
2019-02-04T17:08:01.484Z,28.30
2019-02-04T17:10:31.583Z,28.33
2019-02-04T17:13:03.813Z,27.70
2019-02-04T17:15:33.679Z,24.73
2019-02-04T17:18:03.805Z,22.37
2019-02-04T17:20:34.006Z,23.20
2019-02-04T17:23:04.129Z,23.80
2019-02-04T17:25:33.941Z,25.73
2019-02-04T17:28:05.868Z,25.60
2019-02-04T17:30:35.762Z,27.00
2019-02-04T17:33:05.835Z,27.43
2019-02-04T17:35:38.367Z,27.83
2019-02-04T17:38:08.411Z,26.80
2019-02-04T17:40:39.079Z,24.83
2019-02-04T17:43:13.591Z,27.67
2019-02-04T17:45:44.457Z,29.17
2019-02-04T17:48:16.934Z,27.17
2019-02-04T17:50:51.920Z,26.77
2019-02-04T17:53:33.652Z,26.10
2019-02-04T17:55:53.243Z,33.47
2019-02-04T17:58:30.919Z,28.13
2019-02-04T18:01:00.994Z,25.33
2019-02-04T18:03:32.587Z,25.00
2019-02-04T18:06:02.452Z,26.27
2019-02-04T18:08:32.471Z,26.97
2019-02-04T18:11:04.413Z,27.67
2019-02-04T18:13:37.101Z,27.43
2019-02-04T18:16:08.953Z,28.00
2019-02-04T18:18:38.917Z,30.87
2019-02-04T18:21:12.487Z,28.10
2019-02-04T18:26:15.809Z,31.20
2019-02-04T18:28:47.909Z,31.30
2019-02-04T18:31:19.400Z,32.77
2019-02-04T18:33:52.453Z,31.90
2019-02-04T18:36:28.054Z,32.43
2019-02-04T18:39:00.891Z,33.10
2019-02-04T18:41:35.448Z,28.60
2019-02-04T18:44:05.941Z,30.77
2019-02-04T18:46:36.278Z,31.83
2019-02-04T18:49:11.133Z,33.30
2019-02-04T18:51:42.074Z,34.50
2019-02-04T18:54:12.728Z,33.07
2019-02-04T18:56:42.677Z,33.70
2019-02-04T18:59:12.793Z,35.10
2019-02-04T19:01:44.408Z,36.77
2019-02-04T19:04:16.113Z,33.60
2019-02-04T19:06:47.797Z,31.77
2019-02-04T19:09:21.657Z,38.97
2019-02-04T19:11:55.575Z,44.07
2019-02-04T19:14:28.407Z,44.83
2019-02-04T19:17:04.248Z,48.80
2019-02-04T19:19:38.028Z,52.33
2019-02-04T19:22:07.998Z,55.50
2019-02-04T19:24:58.010Z,56.00
2019-02-04T19:27:40.762Z,55.23
2019-02-04T19:30:22.757Z,56.00
2019-02-04T19:32:52.961Z,55.10
2019-02-04T19:35:22.932Z,57.60
2019-02-04T19:37:58.006Z,56.50
2019-02-04T19:40:29.529Z,55.83
2019-02-04T19:42:59.523Z,60.27
2019-02-04T19:45:29.758Z,60.47
2019-02-04T19:48:03.889Z,62.80
2019-02-04T19:50:42.681Z,62.67
2019-02-04T19:53:14.000Z,62.20
2019-02-04T19:55:43.833Z,62.90
2019-02-04T19:58:15.802Z,59.70
2019-02-04T20:00:50.076Z,60.70
2019-02-04T20:03:21.579Z,61.00
2019-02-04T20:05:51.524Z,59.20
2019-02-04T20:08:22.833Z,59.73
2019-02-04T20:10:57.515Z,59.07
2019-02-04T20:13:27.292Z,57.07
2019-02-04T20:16:06.208Z,54.13
2019-02-04T20:18:37.271Z,57.43
2019-02-04T20:21:10.005Z,56.43
2019-02-04T20:23:39.917Z,57.07
2019-02-04T20:26:13.337Z,59.10
2019-02-04T20:28:45.754Z,55.47
2019-02-04T20:31:22.344Z,57.77
2019-02-04T20:33:57.347Z,58.53
2019-02-04T20:36:30.064Z,56.47
2019-02-04T20:39:06.135Z,58.33
2019-02-04T20:41:38.237Z,57.90
2019-02-04T20:44:14.563Z,58.13
2019-02-04T20:46:49.617Z,59.83
2019-02-04T20:49:24.386Z,61.43
2019-02-04T20:51:55.304Z,57.93
2019-02-04T20:54:26.845Z,62.30
2019-02-04T20:56:56.785Z,60.30
2019-02-04T20:59:27.945Z,60.07
2019-02-04T21:01:59.466Z,62.43
2019-02-04T21:04:29.307Z,62.23
2019-02-04T21:06:59.264Z,60.23
2019-02-04T21:09:29.545Z,62.27
2019-02-04T21:12:00.208Z,63.17
2019-02-04T21:14:30.171Z,62.03
2019-02-04T21:17:01.467Z,65.27
2019-02-04T21:19:31.903Z,63.10
2019-02-04T21:22:01.866Z,61.80
2019-02-04T21:24:31.777Z,63.33
2019-02-04T21:27:02.261Z,62.90
2019-02-04T21:29:33.028Z,63.70
2019-02-04T21:32:03.511Z,65.57
2019-02-04T21:34:33.823Z,73.80
2019-02-04T21:37:06.742Z,71.83
2019-02-04T21:39:39.401Z,70.17
2019-02-04T21:42:10.353Z,70.63
2019-02-04T21:44:40.216Z,68.90
2019-02-04T21:47:10.305Z,71.10
2019-02-04T21:49:40.417Z,68.30
2019-02-04T21:52:10.795Z,67.63
2019-02-04T21:54:40.872Z,62.83
2019-02-04T21:57:10.902Z,65.97
2019-02-04T21:59:40.773Z,63.57
2019-02-04T22:02:10.733Z,64.07
2019-02-04T22:04:42.023Z,66.37
2019-02-04T22:07:11.952Z,63.90
2019-02-04T22:09:41.782Z,68.53
2019-02-04T22:12:11.626Z,68.03
2019-02-04T22:17:38.184Z,74.43
2019-02-04T22:20:11.249Z,72.23
2019-02-04T22:22:41.199Z,78.83
2019-02-04T22:25:19.618Z,76.50
2019-02-04T22:27:44.865Z,79.30
2019-02-04T22:30:23.258Z,78.87
2019-02-04T22:32:53.095Z,78.53
2019-02-04T22:35:23.028Z,81.53
2019-02-04T22:37:52.862Z,77.53
2019-02-04T22:40:29.754Z,75.67
2019-02-04T22:42:59.342Z,76.00
2019-02-04T22:45:29.233Z,75.97
2019-02-04T22:47:59.056Z,74.53
2019-02-04T22:50:30.776Z,73.70
2019-02-04T22:53:02.281Z,71.50
2019-02-04T22:55:32.838Z,71.77
2019-02-04T22:58:03.057Z,67.87
2019-02-04T23:00:49.194Z,70.37
2019-02-04T23:03:25.334Z,69.47
2019-02-04T23:05:55.177Z,68.73
2019-02-04T23:08:25.104Z,66.73
2019-02-04T23:10:55.348Z,66.80
2019-02-04T23:13:25.175Z,64.47
2019-02-04T23:15:55.643Z,64.33
2019-02-04T23:18:25.816Z,63.37
2019-02-04T23:20:55.697Z,62.90
2019-02-04T23:23:25.537Z,64.00
2019-02-04T23:25:55.376Z,61.60
2019-02-04T23:28:25.260Z,59.97
2019-02-04T23:30:55.080Z,63.03
2019-02-04T23:33:33.848Z,60.40
2019-02-04T23:35:56.497Z,63.20
2019-02-04T23:38:26.902Z,62.80
2019-02-04T23:40:57.117Z,64.23
2019-02-04T23:43:27.476Z,60.80
2019-02-04T23:45:57.688Z,65.90
2019-02-04T23:48:27.628Z,64.90
2019-02-04T23:50:57.657Z,64.80
2019-02-04T23:53:27.792Z,64.13
2019-02-04T23:55:57.857Z,62.97
2019-02-04T23:58:27.777Z,63.53
